Relevés horaires Antwerpen / Deurne (Belgique)


Relevés horaires à Antwerpen / Deurne - Mercredi 03 Oct. 2018
Heure UTC1 Température [°C] Vent [km/h] Hum. [%] Pres.4 [hPa] Visi. [Km] Nébu. [octa] Préc.5 [mm] Cond.
2m. Res. Ros. Dir.2 Vit. Moy. Raf.3
23:00 13.7 13.7 9.3 SO 3.7 5.6 7.4 75 1027.8(-0.6/3h) 23 8/8 -- --
22:00 13.7 13.7 9.1 SSO 3.7 3.7 7.4 74 1028(0.1/3h) 23 8/8 -- --
21:00 13.8 13.8 9.0 SSO 3.7 5.6 7.4 73 1028.2(0.0/3h) 26 8/8 -- --
20:00 13.8 13.8 8.7 OSO 3.7 3.7 5.6 71 1028.4(0.7/3h) 26 8/8 -- --
19:00 13.9 13.9 8.1 SSO 3.7 5.6 7.4 68 1028.2(0.6/3h) 26 8/8 -- --
18:00 13.9 13.9 7.6 O 5.6 11.1 14.8 66 1028.2(0.9/3h) 26 7/8 0/12h
--
17:00 14.0 13.5 6.6 ONO 9.3 9.3 14.8 61 1027.7(0.2/3h) 26 2/8 -- --
16:00 15.1 14.8 5.9 ONO 9.3 11.1 14.8 54 1027.5(-0.1/3h) 30 3/8 -- --
15:00 15.8 15.6 6.4 NO 9.3 9.3 14.8 54 1027.3(-0.3/3h) 25 3/8 -- --
14:00 16.1 16 5.8 O 9.3 9.3 14.8 50 1027.5(0.0/3h) 25 4/8 -- --
13:00 15.6 15.4 6.0 ONO 9.3 9.3 14.8 53 1027.5(0.5/3h) 22 6/8 -- --
12:00 15.9 15.8 6.5 O 9.3 11.1 14.8 54 1027.6(1.1/3h) 20 6/8 0/6h
--
11:00 15.0 15 6.2 ONO 7.4 11.1 14.8 56 1027.5(1.7/3h) 22 6/8 -- --
10:00 14.8 14.2 6.5 ONO 11.1 11.1 14.8 57 1027(2.1/3h) 20 5/8 -- --
09:00 14.1 13.6 7.9 ONO 9.3 9.3 13.0 66 1026.5(2.6/3h) 15 5/8 -- --
08:00 13.2 13.2 8.0 ONO 5.6 5.6 9.3 71 1025.8(2.4/3h) 12 5/8 -- --
07:00 11.5 11.5 8.1 O 3.7 7.4 9.3 80 1024.8(1.8/3h) 12 5/8 -- --
06:00 10.9 10.2 7.5 O 7.4 7.4 13.0 80 1023.9(1.6/3h) 12 5/8 0/12h
--
05:00 12.0 11.9 7.8 O 5.6 7.4 11.1 75 1023.4(1.5/3h) 15 4/8 -- --
04:00 12.3 12.2 8.5 O 5.6 7.4 13.0 78 1023(1.6/3h) 14 2/8 -- --
03:00 12.9 12.5 9.4 O 7.4 7.4 11.1 79 1022.2(1.6/3h) 22 0/8 -- --
02:00 12.6 12.6 10.9 O 5.6 7.4 9.3 89 1021.8(1.4/3h) 21 5/8 -- --
01:00 12.9 12.9 11.0 O 5.6 7.4 11.1 88 1021.3(1.1/3h) 21 0/8 -- --
00:00 13.5 13.2 10.4 O 7.4 9.3 13.0 82 1020.7(0.5/3h) 20 0/8 0/6h
1.1/24h
--

1 Coordinated Universal Time. Actuellement il est 02:00 locale et 01:00 UTC.

2 Le vent souffle depuis la direction indiquée vers la direction oposée.

3 Les rafales max. sont disponible 40 min après l'heure du relevé.

4 Pour les stations d'altitude (plus de 600m) le géopotentiel du niveau le plus proche de la pression obligatoire est indiqué.

5 Les stations disposant d'un diffuseur peuvent indiquer "trace". Cela signifie que des précipitations ont touchés le sol mais que la quantité est inférieure à 0.1 mm.

Récapitulatif de la journée
Température [°C] Vent [km/h] Ensoleillement4 [h] Precipitations totale5 [mm] Pression [Hpa]
Min1 Max.2 Moy.3 Max. Min Max.
10.7 16.3 8 14.8 0 h 0 min 0 1020.7 1028.4

1 Température minimale relevée entre 18:00 UTC la veille et 18:00 UTC le jour donné.

2 Température maximale relevée entre 06:00 UTC le jour donné et 06:00 UTC le lendemain.

3 Vent moyen de la journée basé sur les relevés horaires.

4 Ensoleillement en heures relevé entre 06:00 UTC la veille et 06:00 UTC le jour donné.

5 Précipitations totales tombées entre 06:00 UTC la jour donné et 06:00 UTC le lendemain.

Graphiques horaires